Polojasno
Jasno s ojedinělými nízkými oblaky
Jasno s ojedinělými nízkými oblaky
Jasná obloha bez mraků
Jasná obloha bez mraků
Jasná obloha bez mraků
Jasná obloha bez mraků
(°C)
11°
11°
12°
13°
14°
16°
17°
(°C)
10°
11°
13°
15°
V
VSV
VSV
VSV
VSV
ZJZ
ZJZ
(km/h)
5-8
5-8
5-8
5-9
5-9
6-9
6-11
(mm)
0
0
0
0
0
0
0
(%)
0
0
0
0
0
0
0

Sluneční výška

/ -9.9°
sun-icon
UV 8
06:41
19:06
První čtvrť (83°)
11:23
01:41

METAR pro San Diego (KSAN)

Čas Podmínky Teplota/
Rosný bod
Vítr Viditelnost Počasí Oblaky Tlak Změna Nezpracované
VFR 11.1°C / 0°C variable 0kt >10km - Broken Clouds 20000ft 1018 - KSAN 281151Z 00000KT 10SM BKN200 11/00 A3006 RMK AO2 SLP180 T01110000 10150 20111 56012
VFR 12.2°C / 2.2°C variable 0kt >10km - Broken Clouds 25000ft 1018 - KSAN 281051Z 00000KT 10SM BKN250 12/02 A3007 RMK AO2 SLP181 T01220022
VFR 12.2°C / 1.1°C variable 0kt >10km - Broken Clouds 25000ft 1018 - KSAN 280951Z 00000KT 10SM BKN250 12/01 A3009 RMK AO2 SLP188 T01220011
VFR 11.7°C / 2.2°C variable 0kt >10km - Broken Clouds 25000ft 1019 - KSAN 280851Z 00000KT 10SM BKN250 12/02 A3010 RMK AO2 SLP192 T01170022 58010
VFR 12.2°C / 3.3°C variable 0kt >10km - Broken Clouds 25000ft 1019 - KSAN 280751Z 00000KT 10SM BKN250 12/03 A3011 RMK AO2 SLP197 T01220033 402110083
VFR 13.3°C / 2.8°C variable 0kt >10km - Few Clouds 25000ft 1019 - KSAN 280651Z 00000KT 10SM FEW250 13/03 A3012 RMK AO2 SLP199 T01330028
VFR 13.9°C / 2.8°C 360º 3kt >10km - Few Clouds 25000ft 1020 - KSAN 280551Z 36003KT 10SM FEW250 14/03 A3013 RMK AO2 SLP202 T01390028 10206 20139 51009
VFR 15.6°C / 1.7°C variable 0kt >10km - Few Clouds 25000ft 1020 - KSAN 280451Z 00000KT 10SM FEW250 16/02 A3013 RMK AO2 SLP201 T01560017
VFR 16.7°C / 0.6°C 350º 5kt >10km - Few Clouds 25000ft 1019 - KSAN 280351Z 35005KT 10SM FEW250 17/01 A3011 RMK AO2 SLP196 T01670006
VFR 19.4°C / 4.4°C 350º 10kt >10km - Few Clouds 25000ft 1018 - KSAN 280051Z 35010KT 10SM FEW250 19/04 A3008 RMK AO2 SLP186 T01940044
VFR 20.6°C / 2.8°C 300º 10kt >10km - Few Clouds 25000ft 1019 - KSAN 272151Z 30010KT 10SM FEW250 21/03 A3010 RMK AO2 SLP192 T02060028
VFR 20°C / 5°C 310º 7kt >10km - Few Clouds 25000ft 1019 - KSAN 272051Z 31007KT 10SM FEW250 20/05 A3012 RMK AO2 SLP199 T02000050 58009
VFR 19.4°C / 3.9°C 300º 9kt >10km - Few Clouds 25000ft 1020 - KSAN 271951Z 30009KT 10SM FEW250 19/04 A3014 RMK AO2 SLP205 T01940039
VFR 19.4°C / 5°C 300º 6kt >10km - Scattered Clouds 25000ft 1020 - KSAN 271851Z 30006KT 10SM SCT250 19/05 A3015 RMK AO2 SLP209 T01940050
VFR 18.9°C / 3.3°C 320º 4kt >10km - Scattered Clouds 25000ft 1020 - KSAN 271751Z 32004KT 10SM SCT250 19/03 A3015 RMK AO2 SLP209 T01890033 10194 20083 50002
VFR 16.7°C / 4.4°C 10º 3kt >10km - Few Clouds 25000ft 1020 - KSAN 271651Z 01003KT 10SM FEW250 17/04 A3015 RMK AO2 SLP209 T01670044
VFR 13.3°C / 5.6°C variable 0kt >10km - Few Clouds 25000ft 1020 - KSAN 271551Z 00000KT 10SM FEW250 13/06 A3015 RMK AO2 SLP209 T01330056
VFR 11.1°C / 5°C variable 0kt >10km - Few Clouds 25000ft 1020 - KSAN 271451Z 00000KT 10SM FEW250 11/05 A3014 RMK AO2 SLP206 T01110050 53006
VFR 8.9°C / 4.4°C 80º 3kt >10km - Few Clouds 25000ft 1020 - KSAN 271351Z 08003KT 10SM FEW250 09/04 A3013 RMK AO2 SLP202 T00890044
VFR 8.9°C / 4.4°C variable 0kt >10km - Few Clouds 25000ft 1019 - KSAN 271251Z 00000KT 10SM FEW250 09/04 A3012 RMK AO2 SLP199 T00890044
VFR 8.9°C / 4.4°C 70º 4kt >10km - Clear 1020 - KSAN 271151Z 07004KT 10SM CLR 09/04 A3012 RMK AO2 SLP200 T00890044 10122 20089 56006
VFR 9.4°C / 4.4°C variable 0kt >10km - Clear 1020 - KSAN 271051Z 00000KT 10SM CLR 09/04 A3013 RMK AO2 SLP201 T00940044
VFR 10°C / 4.4°C variable 0kt >10km - Clear 1020 - KSAN 270951Z 00000KT 10SM CLR 10/04 A3014 RMK AO2 SLP204 T01000044
VFR 10°C / 5.6°C variable 0kt >10km - Few Clouds 2000ft 1020 - KSAN 270851Z 00000KT 10SM FEW020 10/06 A3014 RMK AO2 SLP206 T01000056 57004

VFR

11.1°C / 0°C

[Víc]
Vítr variable 0kt
Viditelnost >10km
Počasí -
Oblaky Broken Clouds 20000ft
Tlak 1018
Změna -
Nezpracované KSAN 281151Z 00000KT 10SM BKN200 11/00 A3006 RMK AO2 SLP180 T01110000 10150 20111 56012

VFR

12.2°C / 2.2°C

[Víc]
Vítr variable 0kt
Viditelnost >10km
Počasí -
Oblaky Broken Clouds 25000ft
Tlak 1018
Změna -
Nezpracované KSAN 281051Z 00000KT 10SM BKN250 12/02 A3007 RMK AO2 SLP181 T01220022

VFR

12.2°C / 1.1°C

[Víc]
Vítr variable 0kt
Viditelnost >10km
Počasí -
Oblaky Broken Clouds 25000ft
Tlak 1018
Změna -
Nezpracované KSAN 280951Z 00000KT 10SM BKN250 12/01 A3009 RMK AO2 SLP188 T01220011

VFR

11.7°C / 2.2°C

[Víc]
Vítr variable 0kt
Viditelnost >10km
Počasí -
Oblaky Broken Clouds 25000ft
Tlak 1019
Změna -
Nezpracované KSAN 280851Z 00000KT 10SM BKN250 12/02 A3010 RMK AO2 SLP192 T01170022 58010

VFR

12.2°C / 3.3°C

[Víc]
Vítr variable 0kt
Viditelnost >10km
Počasí -
Oblaky Broken Clouds 25000ft
Tlak 1019
Změna -
Nezpracované KSAN 280751Z 00000KT 10SM BKN250 12/03 A3011 RMK AO2 SLP197 T01220033 402110083

VFR

13.3°C / 2.8°C

[Víc]
Vítr variable 0kt
Viditelnost >10km
Počasí -
Oblaky Few Clouds 25000ft
Tlak 1019
Změna -
Nezpracované KSAN 280651Z 00000KT 10SM FEW250 13/03 A3012 RMK AO2 SLP199 T01330028

VFR

13.9°C / 2.8°C

[Víc]
Vítr 360º 3kt
Viditelnost >10km
Počasí -
Oblaky Few Clouds 25000ft
Tlak 1020
Změna -
Nezpracované KSAN 280551Z 36003KT 10SM FEW250 14/03 A3013 RMK AO2 SLP202 T01390028 10206 20139 51009

VFR

15.6°C / 1.7°C

[Víc]
Vítr variable 0kt
Viditelnost >10km
Počasí -
Oblaky Few Clouds 25000ft
Tlak 1020
Změna -
Nezpracované KSAN 280451Z 00000KT 10SM FEW250 16/02 A3013 RMK AO2 SLP201 T01560017

VFR

16.7°C / 0.6°C

[Víc]
Vítr 350º 5kt
Viditelnost >10km
Počasí -
Oblaky Few Clouds 25000ft
Tlak 1019
Změna -
Nezpracované KSAN 280351Z 35005KT 10SM FEW250 17/01 A3011 RMK AO2 SLP196 T01670006

VFR

19.4°C / 4.4°C

[Víc]
Vítr 350º 10kt
Viditelnost >10km
Počasí -
Oblaky Few Clouds 25000ft
Tlak 1018
Změna -
Nezpracované KSAN 280051Z 35010KT 10SM FEW250 19/04 A3008 RMK AO2 SLP186 T01940044

VFR

20.6°C / 2.8°C

[Víc]
Vítr 300º 10kt
Viditelnost >10km
Počasí -
Oblaky Few Clouds 25000ft
Tlak 1019
Změna -
Nezpracované KSAN 272151Z 30010KT 10SM FEW250 21/03 A3010 RMK AO2 SLP192 T02060028

VFR

20°C / 5°C

[Víc]
Vítr 310º 7kt
Viditelnost >10km
Počasí -
Oblaky Few Clouds 25000ft
Tlak 1019
Změna -
Nezpracované KSAN 272051Z 31007KT 10SM FEW250 20/05 A3012 RMK AO2 SLP199 T02000050 58009

VFR

19.4°C / 3.9°C

[Víc]
Vítr 300º 9kt
Viditelnost >10km
Počasí -
Oblaky Few Clouds 25000ft
Tlak 1020
Změna -
Nezpracované KSAN 271951Z 30009KT 10SM FEW250 19/04 A3014 RMK AO2 SLP205 T01940039

VFR

19.4°C / 5°C

[Víc]
Vítr 300º 6kt
Viditelnost >10km
Počasí -
Oblaky Scattered Clouds 25000ft
Tlak 1020
Změna -
Nezpracované KSAN 271851Z 30006KT 10SM SCT250 19/05 A3015 RMK AO2 SLP209 T01940050

VFR

18.9°C / 3.3°C

[Víc]
Vítr 320º 4kt
Viditelnost >10km
Počasí -
Oblaky Scattered Clouds 25000ft
Tlak 1020
Změna -
Nezpracované KSAN 271751Z 32004KT 10SM SCT250 19/03 A3015 RMK AO2 SLP209 T01890033 10194 20083 50002

VFR

16.7°C / 4.4°C

[Víc]
Vítr 10º 3kt
Viditelnost >10km
Počasí -
Oblaky Few Clouds 25000ft
Tlak 1020
Změna -
Nezpracované KSAN 271651Z 01003KT 10SM FEW250 17/04 A3015 RMK AO2 SLP209 T01670044

VFR

13.3°C / 5.6°C

[Víc]
Vítr variable 0kt
Viditelnost >10km
Počasí -
Oblaky Few Clouds 25000ft
Tlak 1020
Změna -
Nezpracované KSAN 271551Z 00000KT 10SM FEW250 13/06 A3015 RMK AO2 SLP209 T01330056

VFR

11.1°C / 5°C

[Víc]
Vítr variable 0kt
Viditelnost >10km
Počasí -
Oblaky Few Clouds 25000ft
Tlak 1020
Změna -
Nezpracované KSAN 271451Z 00000KT 10SM FEW250 11/05 A3014 RMK AO2 SLP206 T01110050 53006

VFR

8.9°C / 4.4°C

[Víc]
Vítr 80º 3kt
Viditelnost >10km
Počasí -
Oblaky Few Clouds 25000ft
Tlak 1020
Změna -
Nezpracované KSAN 271351Z 08003KT 10SM FEW250 09/04 A3013 RMK AO2 SLP202 T00890044

VFR

8.9°C / 4.4°C

[Víc]
Vítr variable 0kt
Viditelnost >10km
Počasí -
Oblaky Few Clouds 25000ft
Tlak 1019
Změna -
Nezpracované KSAN 271251Z 00000KT 10SM FEW250 09/04 A3012 RMK AO2 SLP199 T00890044

VFR

8.9°C / 4.4°C

[Víc]
Vítr 70º 4kt
Viditelnost >10km
Počasí -
Oblaky Clear
Tlak 1020
Změna -
Nezpracované KSAN 271151Z 07004KT 10SM CLR 09/04 A3012 RMK AO2 SLP200 T00890044 10122 20089 56006

VFR

9.4°C / 4.4°C

[Víc]
Vítr variable 0kt
Viditelnost >10km
Počasí -
Oblaky Clear
Tlak 1020
Změna -
Nezpracované KSAN 271051Z 00000KT 10SM CLR 09/04 A3013 RMK AO2 SLP201 T00940044

VFR

10°C / 4.4°C

[Víc]
Vítr variable 0kt
Viditelnost >10km
Počasí -
Oblaky Clear
Tlak 1020
Změna -
Nezpracované KSAN 270951Z 00000KT 10SM CLR 10/04 A3014 RMK AO2 SLP204 T01000044

VFR

10°C / 5.6°C

[Víc]
Vítr variable 0kt
Viditelnost >10km
Počasí -
Oblaky Few Clouds 2000ft
Tlak 1020
Změna -
Nezpracované KSAN 270851Z 00000KT 10SM FEW020 10/06 A3014 RMK AO2 SLP206 T01000056 57004

TAF pro San Diego (KSAN)

From till


From till Wind variable 4kt. Visibility 10km or more. Broken Clouds 25000ft.
From till Wind 280º 9kt. Visibility 10km or more. Scattered Clouds 25000ft.
From till Wind variable 4kt. Visibility 10km or more. Scattered Clouds 1500ft. Scattered Clouds 20000ft.
From till Wind variable 4kt. Visibility 10km or more. Broken Clouds 1500ft. Broken Clouds 5000ft.
From till Wind 180º 6kt. Visibility 10km or more. in the Vicinity Showers . Broken Clouds 1200ft. Overcast 4000ft.

Nezpracované: KSAN 281127Z 2812/2918 VRB04KT P6SM BKN250 FM281900 28009KT P6SM SCT250 FM290200 VRB04KT P6SM SCT015 SCT200 FM291100 VRB04KT P6SM BKN015 BKN050 FM291500 18006KT P6SM VCSH BKN012 OVC040

Radar a krátkodobá předpověď srážek pro San Diego

Mrholení
Slabé
Střední
Silné
Velmi silné
Kroupy

Značka lokality je umístněna na San Diego. Tato animace zobrazuje srážkový radar pro vybraný časový rozsah a také 1h předpověď. Mrholení nebo slabé sněžení může být pro radar neviditelné. Intenzita srážek je barevně označena od tyrkysové po červenou.

Aktuální snímky ze satelitu pro San Diego, Spojené státy americké

Značka polohy je umístěna na San Diego. [Víc]

Satelitní snímek v reálném čase kombinuje viditelné světlo během dne s infračerveným zářením během noci. V noci není obraz tmavý, protože infračervené záření dokáže detekovat teplotní rozdíly. Nízká oblačnost a mlha se bohužel těžko odlišují od pozemních teplot, a proto mohou být během noci téměř neviditelné. Satelitní snímky z Meteosatu pro Evropu jsou aktualizovány v reálném čase každých 5 minut. Snímky z GOES-16/GOES-17 (Severní a Jižní Amerika) a Himawari (Asie) jsou aktualizovány) každých 10 minut.

Zpět nahoru